createdAt,value
2019-03-17T00:01:27.817Z,9.50
2019-03-17T00:03:58.581Z,9.30
2019-03-17T00:06:29.945Z,9.40
2019-03-17T00:09:00.836Z,9.30
2019-03-17T00:11:33.608Z,9.40
2019-03-17T00:14:05.525Z,9.20
2019-03-17T00:16:35.820Z,9.20
2019-03-17T00:19:06.235Z,9.20
2019-03-17T00:21:38.899Z,9.00
2019-03-17T00:24:11.417Z,9.10
2019-03-17T00:26:43.635Z,9.20
2019-03-17T00:29:15.853Z,9.30
2019-03-17T00:31:48.488Z,9.30
2019-03-17T00:34:20.749Z,8.90
2019-03-17T00:36:52.458Z,9.00
2019-03-17T00:39:27.053Z,8.80
2019-03-17T00:41:58.631Z,8.90
2019-03-17T00:44:31.901Z,8.80
2019-03-17T00:47:03.758Z,8.80
2019-03-17T00:49:36.439Z,8.70
2019-03-17T00:52:09.415Z,8.70
2019-03-17T00:54:41.455Z,8.60
2019-03-17T00:57:12.844Z,8.50
2019-03-17T00:59:45.318Z,8.60
2019-03-17T01:02:15.788Z,8.60
2019-03-17T01:04:55.806Z,8.50
2019-03-17T01:07:20.457Z,8.50
2019-03-17T01:09:52.657Z,8.60
2019-03-17T01:12:24.105Z,8.50
2019-03-17T01:14:55.486Z,8.60
2019-03-17T01:17:25.914Z,8.40
2019-03-17T01:19:58.813Z,8.60
2019-03-17T01:22:29.753Z,8.60
2019-03-17T01:25:00.356Z,8.30
2019-03-17T01:27:35.828Z,8.60
2019-03-17T01:30:08.348Z,8.20
2019-03-17T01:32:39.276Z,8.40
2019-03-17T01:35:11.254Z,8.60
2019-03-17T01:37:41.661Z,8.10
2019-03-17T01:40:13.185Z,8.30
2019-03-17T01:42:45.217Z,8.30
2019-03-17T01:45:18.734Z,8.30
2019-03-17T01:47:51.945Z,7.90
2019-03-17T01:50:22.656Z,8.10
2019-03-17T01:52:55.225Z,8.00
2019-03-17T01:55:25.634Z,8.20
2019-03-17T01:57:59.147Z,8.20
2019-03-17T02:00:31.204Z,8.00
2019-03-17T02:03:02.174Z,7.90
2019-03-17T02:05:32.900Z,8.10
2019-03-17T02:08:05.080Z,8.00
2019-03-17T02:10:38.767Z,8.00
2019-03-17T02:13:10.941Z,7.70
2019-03-17T02:15:41.766Z,7.80
2019-03-17T02:18:15.796Z,8.00
2019-03-17T02:20:46.509Z,7.70
2019-03-17T02:23:17.486Z,7.90
2019-03-17T02:25:47.865Z,7.70
2019-03-17T02:28:20.184Z,7.60
2019-03-17T02:30:53.149Z,7.90
2019-03-17T02:33:23.520Z,7.90
2019-03-17T02:35:54.299Z,7.80
2019-03-17T02:38:26.684Z,7.60
2019-03-17T02:40:57.094Z,7.90
2019-03-17T02:43:28.244Z,7.90
2019-03-17T02:46:02.640Z,7.70
2019-03-17T02:48:30.710Z,7.60
2019-03-17T02:51:01.462Z,7.60
2019-03-17T02:53:34.031Z,7.90
2019-03-17T02:56:06.540Z,7.60
2019-03-17T02:58:37.209Z,7.60
2019-03-17T03:01:08.926Z,7.80
2019-03-17T03:03:39.311Z,7.60
2019-03-17T03:06:09.768Z,7.40
2019-03-17T03:08:41.543Z,7.50
2019-03-17T03:11:12.335Z,7.90
2019-03-17T03:13:42.704Z,7.60
2019-03-17T03:16:13.102Z,7.30
2019-03-17T03:18:47.243Z,7.40
2019-03-17T03:21:17.666Z,7.30
2019-03-17T03:23:48.049Z,7.40
2019-03-17T03:26:18.497Z,7.20
2019-03-17T03:28:48.915Z,7.50
2019-03-17T03:31:21.254Z,7.20
2019-03-17T03:33:54.394Z,7.30
2019-03-17T03:36:24.778Z,7.40
2019-03-17T03:38:55.374Z,7.50
2019-03-17T03:41:26.833Z,7.50
2019-03-17T03:43:58.256Z,7.10
2019-03-17T03:46:30.708Z,7.20
2019-03-17T03:49:03.653Z,7.30
2019-03-17T03:51:34.439Z,7.30
2019-03-17T03:54:06.287Z,7.40
2019-03-17T03:56:37.787Z,7.60
2019-03-17T03:59:09.234Z,7.30
2019-03-17T04:01:40.745Z,7.40
2019-03-17T04:04:11.109Z,7.50
2019-03-17T04:06:42.508Z,7.70
2019-03-17T04:09:13.985Z,7.80
2019-03-17T04:11:44.653Z,7.80
2019-03-17T04:14:15.689Z,7.70
2019-03-17T04:16:48.569Z,7.80
2019-03-17T04:19:18.967Z,7.90
2019-03-17T04:21:52.280Z,7.60
2019-03-17T04:24:24.838Z,7.50
2019-03-17T04:26:55.241Z,7.60
2019-03-17T04:29:26.940Z,7.90
2019-03-17T04:31:57.373Z,7.80
2019-03-17T04:34:28.231Z,7.60
2019-03-17T04:36:59.934Z,7.60
2019-03-17T04:39:33.035Z,7.50
2019-03-17T04:42:04.853Z,7.40
2019-03-17T04:44:35.320Z,7.80
2019-03-17T04:47:06.308Z,7.60
2019-03-17T04:49:38.126Z,7.60
2019-03-17T04:52:08.542Z,7.60
2019-03-17T04:54:38.909Z,7.30
2019-03-17T04:57:09.966Z,7.60
2019-03-17T04:59:41.364Z,7.40
2019-03-17T05:02:13.648Z,7.50
2019-03-17T05:04:48.872Z,7.20
2019-03-17T05:07:19.227Z,7.30
2019-03-17T05:09:50.795Z,7.30
2019-03-17T05:12:21.428Z,7.20
2019-03-17T05:14:51.722Z,7.40
2019-03-17T05:17:22.174Z,7.40
2019-03-17T05:19:52.557Z,7.40
2019-03-17T05:22:24.374Z,7.20
2019-03-17T05:24:54.816Z,7.60
2019-03-17T05:27:25.536Z,7.30
2019-03-17T05:29:55.941Z,7.30
2019-03-17T05:32:27.723Z,7.30
2019-03-17T05:34:58.061Z,7.50
2019-03-17T05:37:31.853Z,7.30
2019-03-17T05:40:02.704Z,7.80
2019-03-17T05:42:34.524Z,7.60
2019-03-17T05:45:05.122Z,7.90
2019-03-17T05:47:35.486Z,7.70
2019-03-17T05:50:06.801Z,7.70
2019-03-17T05:52:39.020Z,7.80
2019-03-17T05:55:09.681Z,8.00
2019-03-17T05:57:41.452Z,8.30
2019-03-17T06:00:15.093Z,9.10
2019-03-17T06:02:45.924Z,10.30
2019-03-17T06:05:16.595Z,11.50
2019-03-17T06:07:47.023Z,12.50
2019-03-17T06:10:17.713Z,13.20
2019-03-17T06:12:48.047Z,14.30
2019-03-17T06:15:18.800Z,14.70
2019-03-17T06:17:49.305Z,14.70
2019-03-17T06:20:22.126Z,14.30
2019-03-17T06:22:52.537Z,13.90
2019-03-17T06:25:23.185Z,13.50
2019-03-17T06:27:54.578Z,13.80
2019-03-17T06:30:25.373Z,14.50
2019-03-17T06:32:55.905Z,14.40
2019-03-17T06:35:26.298Z,14.20
2019-03-17T06:37:58.208Z,14.10
2019-03-17T06:40:30.501Z,14.10
2019-03-17T06:43:01.301Z,13.70
2019-03-17T06:45:33.475Z,13.50
2019-03-17T06:48:16.063Z,13.30
2019-03-17T06:50:48.187Z,13.10
2019-03-17T06:53:18.667Z,13.00
2019-03-17T06:55:51.874Z,12.90
2019-03-17T06:58:23.741Z,12.80
2019-03-17T07:00:54.669Z,12.60
2019-03-17T07:03:25.423Z,12.80
2019-03-17T07:05:56.548Z,12.90
2019-03-17T07:08:26.846Z,13.00
2019-03-17T07:10:58.528Z,13.10
2019-03-17T07:13:33.885Z,13.50
2019-03-17T07:16:09.430Z,13.70
2019-03-17T07:18:40.460Z,14.20
2019-03-17T07:21:12.029Z,14.60
2019-03-17T07:23:43.550Z,15.30
2019-03-17T07:26:16.112Z,16.20
2019-03-17T07:28:46.572Z,17.20
2019-03-17T07:31:18.289Z,17.70
2019-03-17T07:33:49.516Z,18.50
2019-03-17T07:36:21.323Z,18.90
2019-03-17T07:38:51.973Z,18.70
2019-03-17T07:41:23.646Z,18.40
2019-03-17T07:43:53.982Z,17.90
2019-03-17T07:46:24.793Z,17.40
2019-03-17T07:48:56.856Z,17.70
2019-03-17T07:51:28.799Z,17.30
2019-03-17T07:54:01.229Z,17.80
2019-03-17T07:56:33.255Z,17.30
2019-03-17T07:59:03.581Z,16.90
2019-03-17T08:01:33.930Z,17.30
2019-03-17T08:04:04.748Z,17.50
2019-03-17T08:06:35.377Z,17.50
2019-03-17T08:09:08.318Z,17.90
2019-03-17T08:11:38.897Z,17.70
2019-03-17T08:14:09.396Z,17.80
2019-03-17T08:16:41.814Z,18.20
2019-03-17T08:19:13.975Z,18.50
2019-03-17T08:21:44.349Z,19.00
2019-03-17T08:24:17.494Z,18.90
2019-03-17T08:26:50.179Z,19.00
2019-03-17T08:29:21.459Z,19.00
2019-03-17T08:31:54.360Z,18.60
2019-03-17T08:34:25.896Z,18.20
2019-03-17T08:36:56.249Z,18.10
2019-03-17T08:39:26.699Z,17.80
2019-03-17T08:41:57.172Z,17.50
2019-03-17T08:44:29.042Z,17.60
2019-03-17T08:47:00.863Z,17.70
2019-03-17T08:49:31.218Z,17.60
2019-03-17T08:52:02.991Z,17.60
2019-03-17T08:54:35.017Z,17.70
2019-03-17T08:57:05.553Z,18.00
2019-03-17T08:59:36.150Z,18.50
2019-03-17T09:02:08.446Z,18.50
2019-03-17T09:04:38.906Z,18.60
2019-03-17T09:07:15.349Z,18.40
2019-03-17T09:09:46.260Z,17.90
2019-03-17T09:12:17.108Z,17.50
2019-03-17T09:14:47.605Z,17.50
2019-03-17T09:17:19.412Z,17.50
2019-03-17T09:19:50.268Z,17.80
2019-03-17T09:22:25.246Z,18.30
2019-03-17T09:24:57.201Z,18.50
2019-03-17T09:27:30.443Z,19.10
2019-03-17T09:30:01.087Z,19.60
2019-03-17T09:32:31.894Z,19.80
2019-03-17T09:35:02.632Z,20.50
2019-03-17T09:37:32.953Z,20.90
2019-03-17T09:40:03.335Z,21.00
2019-03-17T09:42:33.625Z,21.70
2019-03-17T09:45:04.454Z,21.50
2019-03-17T09:47:34.949Z,21.00
2019-03-17T09:50:06.957Z,20.30
2019-03-17T09:52:39.426Z,20.40
2019-03-17T09:55:10.193Z,20.20
2019-03-17T09:57:40.897Z,19.70
2019-03-17T10:00:12.822Z,18.90
2019-03-17T10:02:43.495Z,19.00
2019-03-17T10:05:16.857Z,19.10
2019-03-17T10:07:47.539Z,19.00
2019-03-17T10:10:17.971Z,19.90
2019-03-17T10:12:49.811Z,19.90
2019-03-17T10:15:22.312Z,19.50
2019-03-17T10:17:55.694Z,19.80
2019-03-17T10:20:26.532Z,19.90
2019-03-17T10:22:58.738Z,19.60
2019-03-17T10:25:29.134Z,20.30
2019-03-17T10:28:00.160Z,21.00
2019-03-17T10:30:30.806Z,21.40
2019-03-17T10:33:01.556Z,21.90
2019-03-17T10:35:33.409Z,21.90
2019-03-17T10:38:04.939Z,21.60
2019-03-17T10:40:35.570Z,21.80
2019-03-17T10:43:07.652Z,22.10
2019-03-17T10:45:39.088Z,22.40
2019-03-17T10:48:12.498Z,22.60
2019-03-17T10:50:49.607Z,23.10
2019-03-17T10:53:16.835Z,23.00
2019-03-17T10:55:47.576Z,22.40
2019-03-17T10:58:19.178Z,22.00
2019-03-17T11:00:51.777Z,21.60
2019-03-17T11:03:22.132Z,21.50
2019-03-17T11:05:54.475Z,21.30
2019-03-17T11:08:24.696Z,21.50
2019-03-17T11:10:55.310Z,22.20
2019-03-17T11:13:26.762Z,22.80
2019-03-17T11:15:58.484Z,23.40
2019-03-17T11:18:30.226Z,23.90
2019-03-17T11:21:03.416Z,24.20
2019-03-17T11:23:35.581Z,24.20
2019-03-17T11:26:06.518Z,24.40
2019-03-17T11:28:37.855Z,24.00
2019-03-17T11:31:12.067Z,24.00
2019-03-17T11:33:42.433Z,23.70
2019-03-17T11:36:13.070Z,22.60
2019-03-17T11:38:43.406Z,21.00
2019-03-17T11:41:15.230Z,20.40
2019-03-17T11:43:46.347Z,20.10
2019-03-17T11:46:17.414Z,20.10
2019-03-17T11:48:48.449Z,20.40
2019-03-17T11:51:18.905Z,21.10
2019-03-17T11:53:50.492Z,20.30
2019-03-17T11:56:23.213Z,19.90
2019-03-17T11:58:53.852Z,19.50
2019-03-17T12:01:24.169Z,19.10
2019-03-17T12:03:58.425Z,18.90
2019-03-17T12:06:29.191Z,18.70
2019-03-17T12:09:04.444Z,18.70
2019-03-17T12:11:34.937Z,18.40
2019-03-17T12:14:06.588Z,19.40
2019-03-17T12:16:37.598Z,19.50
2019-03-17T12:19:07.872Z,19.20
2019-03-17T12:21:38.669Z,19.10
2019-03-17T12:24:09.583Z,18.90
2019-03-17T12:26:42.074Z,18.90
2019-03-17T12:29:12.441Z,19.00
2019-03-17T12:31:44.629Z,19.00
2019-03-17T12:34:23.903Z,19.10
2019-03-17T12:36:48.684Z,19.50
2019-03-17T12:39:20.151Z,19.80
2019-03-17T12:41:50.860Z,19.90
2019-03-17T12:44:22.353Z,19.90
2019-03-17T12:46:52.717Z,20.00
2019-03-17T12:49:24.222Z,19.60
2019-03-17T12:51:54.677Z,19.70
2019-03-17T12:54:25.787Z,19.40
2019-03-17T12:56:57.264Z,19.10
2019-03-17T12:59:28.128Z,18.70
2019-03-17T13:01:58.872Z,18.60
2019-03-17T13:04:29.227Z,18.10
2019-03-17T13:07:00.807Z,18.10
2019-03-17T13:09:31.273Z,18.40
2019-03-17T13:12:02.476Z,18.60
2019-03-17T13:14:34.236Z,18.40
2019-03-17T13:17:05.640Z,18.30
2019-03-17T13:19:35.996Z,18.20
2019-03-17T13:22:06.442Z,18.30
2019-03-17T13:24:38.776Z,17.90
2019-03-17T13:27:10.636Z,18.00
2019-03-17T13:29:40.998Z,17.80
2019-03-17T13:32:12.350Z,17.80
2019-03-17T13:34:43.095Z,17.60
2019-03-17T13:37:15.265Z,17.40
2019-03-17T13:39:46.020Z,17.30
2019-03-17T13:42:16.446Z,17.40
2019-03-17T13:44:47.131Z,17.30
2019-03-17T13:47:17.882Z,17.20
2019-03-17T13:49:48.726Z,17.50
2019-03-17T13:52:20.572Z,17.20
2019-03-17T13:54:51.779Z,17.30
2019-03-17T13:57:22.763Z,17.00
2019-03-17T13:59:53.598Z,17.20
2019-03-17T14:02:24.416Z,16.80
2019-03-17T14:04:55.148Z,17.00
2019-03-17T14:07:26.044Z,17.10
2019-03-17T14:09:57.481Z,16.80
2019-03-17T14:12:30.140Z,16.80
2019-03-17T14:15:00.614Z,16.70
2019-03-17T14:17:31.297Z,16.80
2019-03-17T14:20:01.934Z,16.60
2019-03-17T14:22:32.508Z,16.80
2019-03-17T14:25:04.126Z,16.80
2019-03-17T14:27:36.417Z,16.70
2019-03-17T14:30:10.929Z,16.60
2019-03-17T14:32:41.667Z,16.70
2019-03-17T14:35:12.494Z,16.70
2019-03-17T14:37:47.748Z,16.90
2019-03-17T14:40:18.116Z,16.60
2019-03-17T14:42:48.595Z,16.70
2019-03-17T14:45:19.421Z,16.80
2019-03-17T14:47:50.813Z,16.80
2019-03-17T14:50:21.268Z,16.70
2019-03-17T14:52:53.785Z,16.50
2019-03-17T14:55:25.608Z,16.90
2019-03-17T14:57:56.139Z,16.90
2019-03-17T15:00:28.679Z,16.70
2019-03-17T15:02:59.475Z,16.50
2019-03-17T15:05:30.884Z,16.60
2019-03-17T15:08:01.244Z,16.20
2019-03-17T15:10:31.993Z,16.30
2019-03-17T15:13:03.486Z,16.00
2019-03-17T15:15:34.279Z,16.20
2019-03-17T15:18:05.046Z,16.30
2019-03-17T15:20:36.054Z,16.70
2019-03-17T15:23:08.637Z,16.40
2019-03-17T15:25:39.101Z,16.50
2019-03-17T15:28:09.441Z,16.30
2019-03-17T15:30:39.922Z,16.30
2019-03-17T15:33:11.787Z,16.30
2019-03-17T15:35:42.636Z,15.90
2019-03-17T15:38:15.390Z,15.90
2019-03-17T15:40:45.847Z,16.10
2019-03-17T15:43:16.244Z,15.60
2019-03-17T15:45:48.794Z,15.60
2019-03-17T15:48:22.283Z,15.60
2019-03-17T15:50:52.646Z,15.70
2019-03-17T15:53:23.678Z,15.30
2019-03-17T15:55:57.499Z,15.30
2019-03-17T15:58:30.084Z,14.50
2019-03-17T16:01:01.971Z,14.40
2019-03-17T16:03:34.317Z,14.20
2019-03-17T16:06:06.122Z,13.80
2019-03-17T16:08:36.534Z,13.50
2019-03-17T16:11:08.258Z,13.10
2019-03-17T16:13:40.471Z,12.60
2019-03-17T16:16:10.841Z,12.50
2019-03-17T16:18:41.314Z,12.30
2019-03-17T16:21:13.412Z,11.60
2019-03-17T16:23:44.333Z,11.60
2019-03-17T16:26:16.018Z,11.10
2019-03-17T16:28:47.760Z,10.70
2019-03-17T16:31:20.725Z,10.30
2019-03-17T16:33:52.648Z,10.10
2019-03-17T16:36:23.395Z,9.60
2019-03-17T16:38:54.133Z,9.80
2019-03-17T16:41:26.636Z,9.70
2019-03-17T16:43:57.693Z,9.40
2019-03-17T16:46:27.969Z,9.30
2019-03-17T16:49:00.612Z,9.30
2019-03-17T16:51:30.741Z,9.00
2019-03-17T16:54:01.120Z,9.20
2019-03-17T16:56:31.401Z,9.10
2019-03-17T16:59:02.864Z,8.80
2019-03-17T17:01:35.171Z,8.70
2019-03-17T17:04:09.461Z,8.70
2019-03-17T17:06:40.478Z,8.60
2019-03-17T17:09:10.888Z,8.80
2019-03-17T17:11:41.330Z,8.30
2019-03-17T17:14:12.667Z,8.20
2019-03-17T17:16:44.254Z,8.30
2019-03-17T17:19:14.774Z,8.20
2019-03-17T17:21:45.241Z,7.90
2019-03-17T17:24:15.662Z,7.90
2019-03-17T17:26:47.320Z,8.20
2019-03-17T17:29:17.998Z,7.70
2019-03-17T17:31:49.210Z,7.90
2019-03-17T17:34:20.400Z,7.90
2019-03-17T17:36:50.765Z,8.00
2019-03-17T17:39:21.409Z,7.80
2019-03-17T17:41:52.872Z,7.60
2019-03-17T17:44:25.223Z,7.40
2019-03-17T17:46:58.189Z,7.60
2019-03-17T17:49:28.029Z,7.30
2019-03-17T17:51:59.942Z,7.10
2019-03-17T17:54:33.264Z,7.30
2019-03-17T17:57:05.128Z,7.40
2019-03-17T17:59:36.538Z,7.60
2019-03-17T18:02:08.615Z,7.60
2019-03-17T18:04:40.854Z,7.40
2019-03-17T18:07:12.704Z,7.60
2019-03-17T18:09:43.110Z,7.30
2019-03-17T18:12:20.848Z,7.30
2019-03-17T18:14:47.977Z,7.10
2019-03-17T18:17:18.840Z,7.20
2019-03-17T18:19:51.559Z,7.30
2019-03-17T18:22:21.993Z,7.20
2019-03-17T18:24:55.197Z,6.90
2019-03-17T18:27:25.501Z,6.90
2019-03-17T18:29:58.099Z,6.80
2019-03-17T18:32:28.444Z,6.70
2019-03-17T18:35:00.466Z,6.90
2019-03-17T18:37:34.442Z,6.70
2019-03-17T18:40:06.458Z,6.50
2019-03-17T18:42:38.641Z,6.70
2019-03-17T18:45:10.426Z,6.90
2019-03-17T18:47:41.546Z,6.70
2019-03-17T18:50:20.082Z,6.60
2019-03-17T18:52:45.070Z,7.00
2019-03-17T18:55:15.755Z,6.60
2019-03-17T18:57:46.567Z,6.60
2019-03-17T19:00:18.705Z,6.40
2019-03-17T19:02:49.638Z,6.30
2019-03-17T19:05:20.545Z,6.20
2019-03-17T19:07:52.945Z,6.20
2019-03-17T19:10:23.464Z,6.30
2019-03-17T19:12:54.215Z,6.60
2019-03-17T19:15:26.107Z,6.30
2019-03-17T19:17:58.169Z,6.30
2019-03-17T19:20:30.006Z,6.10
2019-03-17T19:23:00.740Z,6.10
2019-03-17T19:25:31.127Z,6.10
2019-03-17T19:28:01.505Z,6.20
2019-03-17T19:30:35.019Z,6.00
2019-03-17T19:33:05.490Z,6.40
2019-03-17T19:35:36.883Z,6.20
2019-03-17T19:38:07.713Z,6.20
2019-03-17T19:40:38.566Z,6.00
2019-03-17T19:43:10.733Z,6.10
2019-03-17T19:45:41.595Z,6.10
2019-03-17T19:48:13.979Z,6.00
2019-03-17T19:50:45.565Z,5.80
2019-03-17T19:53:15.908Z,5.70
2019-03-17T19:55:48.283Z,5.90
2019-03-17T19:58:19.022Z,5.70
2019-03-17T20:00:49.409Z,5.60
2019-03-17T20:03:19.923Z,5.70
2019-03-17T20:06:01.344Z,5.80
2019-03-17T20:08:28.263Z,5.80
2019-03-17T20:11:01.476Z,5.90
2019-03-17T20:13:32.208Z,5.40
2019-03-17T20:16:02.953Z,5.30
2019-03-17T20:18:33.896Z,5.50
2019-03-17T20:21:04.634Z,5.30
2019-03-17T20:23:35.133Z,5.20
2019-03-17T20:26:05.570Z,5.20
2019-03-17T20:28:39.282Z,5.20
2019-03-17T20:31:09.768Z,5.20
2019-03-17T20:33:41.166Z,5.20
2019-03-17T20:36:11.561Z,5.20
2019-03-17T20:38:45.218Z,5.40
2019-03-17T20:41:18.885Z,5.50
2019-03-17T20:43:51.385Z,5.30
2019-03-17T20:46:22.189Z,5.60
2019-03-17T20:48:52.489Z,5.50
2019-03-17T20:51:23.189Z,5.40
2019-03-17T20:53:53.666Z,5.40
2019-03-17T20:56:24.357Z,5.50
2019-03-17T20:58:56.168Z,5.40
2019-03-17T21:01:26.837Z,5.60
2019-03-17T21:03:57.213Z,5.50
2019-03-17T21:06:29.128Z,5.70
2019-03-17T21:09:00.168Z,5.80
2019-03-17T21:11:32.470Z,5.50
2019-03-17T21:14:02.861Z,5.60
2019-03-17T21:16:34.993Z,5.80
2019-03-17T21:19:06.448Z,5.80
2019-03-17T21:21:36.893Z,5.80
2019-03-17T21:24:07.645Z,5.70
2019-03-17T21:26:38.281Z,5.60
2019-03-17T21:29:09.897Z,5.60
2019-03-17T21:31:40.377Z,5.60
2019-03-17T21:34:11.426Z,5.60
2019-03-17T21:36:42.156Z,5.60
2019-03-17T21:39:12.590Z,5.40
2019-03-17T21:41:42.987Z,5.60
2019-03-17T21:44:17.271Z,5.80
2019-03-17T21:46:48.044Z,5.80
2019-03-17T21:49:18.995Z,5.80
2019-03-17T21:51:49.269Z,5.80
2019-03-17T21:54:20.057Z,5.40
2019-03-17T21:56:50.793Z,5.30
2019-03-17T21:59:21.824Z,5.40
2019-03-17T22:01:52.653Z,5.50
2019-03-17T22:04:23.016Z,5.30
2019-03-17T22:06:55.454Z,5.40
2019-03-17T22:09:26.513Z,5.20
2019-03-17T22:11:56.899Z,5.30
2019-03-17T22:14:28.366Z,5.30
2019-03-17T22:16:59.576Z,5.40
2019-03-17T22:19:30.368Z,5.10
2019-03-17T22:22:00.762Z,5.50
2019-03-17T22:24:31.160Z,5.40
2019-03-17T22:27:02.650Z,5.20
2019-03-17T22:29:34.798Z,5.50
2019-03-17T22:32:06.702Z,5.50
2019-03-17T22:34:39.662Z,5.50
2019-03-17T22:37:10.036Z,5.50
2019-03-17T22:39:40.820Z,5.30
2019-03-17T22:42:11.460Z,5.60
2019-03-17T22:44:43.626Z,5.30
2019-03-17T22:47:16.099Z,5.50
2019-03-17T22:49:48.849Z,5.40
2019-03-17T22:52:19.228Z,5.50
2019-03-17T22:54:49.664Z,5.40
2019-03-17T22:57:19.977Z,5.40
2019-03-17T22:59:51.678Z,5.50
2019-03-17T23:02:22.035Z,5.40
2019-03-17T23:04:57.011Z,5.30
2019-03-17T23:07:27.393Z,5.50
2019-03-17T23:10:00.572Z,5.50
2019-03-17T23:12:30.921Z,5.40
2019-03-17T23:15:01.582Z,5.50
2019-03-17T23:17:32.310Z,5.40
2019-03-17T23:20:06.529Z,5.40
2019-03-17T23:22:36.828Z,5.30
2019-03-17T23:25:09.258Z,5.40
2019-03-17T23:27:40.729Z,5.20
2019-03-17T23:30:13.286Z,5.20
2019-03-17T23:32:43.693Z,5.30
2019-03-17T23:35:15.869Z,5.40
2019-03-17T23:37:46.263Z,5.30
2019-03-17T23:40:16.678Z,5.10
2019-03-17T23:42:48.377Z,5.00
2019-03-17T23:45:18.863Z,4.90
2019-03-17T23:47:49.221Z,5.20
2019-03-17T23:50:20.986Z,5.20
2019-03-17T23:52:52.452Z,4.90
2019-03-17T23:55:24.314Z,5.20
2019-03-17T23:57:56.676Z,5.20
